Terminal Aerodrome Forecast
Issued by NWS Memphis, TN

Home | Current Version | Previous Version | Text Only | Print | Product List | Glossary On
Versions: 1 2 3 4 5 6 7 8 9 10 11 12 13
000
FTUS44 KMEG 221700
TAFJBR
TAF
KJBR 221732Z 2218/2318 25007KT P6SM SCT070 SCT250
     FM230100 23005KT P6SM SCT250
     FM231600 25007KT P6SM FEW040 SCT250=

USA.gov is the U.S. government's official web portal to all federal, state and local government web resources and services.